createdAt,value
2018-02-20T00:00:46.627Z,-0.80
2018-02-20T00:03:14.191Z,-0.80
2018-02-20T00:05:41.736Z,-0.80
2018-02-20T00:08:09.283Z,-0.90
2018-02-20T00:10:36.843Z,-1.00
2018-02-20T00:13:04.401Z,-0.90
2018-02-20T00:15:31.978Z,-0.70
2018-02-20T00:17:59.519Z,-0.90
2018-02-20T00:20:27.067Z,-0.90
2018-02-20T00:22:55.219Z,-0.90
2018-02-20T00:25:23.622Z,-0.90
2018-02-20T00:27:51.246Z,-0.90
2018-02-20T00:30:19.549Z,-0.90
2018-02-20T00:32:47.103Z,-0.90
2018-02-20T00:35:14.664Z,-1.00
2018-02-20T00:37:42.275Z,-1.10
2018-02-20T00:40:09.852Z,-1.20
2018-02-20T00:42:38.536Z,-1.40
2018-02-20T00:45:06.606Z,-1.40
2018-02-20T00:47:34.957Z,-1.40
2018-02-20T00:50:02.620Z,-1.90
2018-02-20T00:52:30.977Z,-1.60
2018-02-20T00:54:58.649Z,-1.60
2018-02-20T00:57:29.638Z,-1.60
2018-02-20T00:59:57.329Z,-1.70
2018-02-20T01:02:27.673Z,-1.70
2018-02-20T01:04:58.832Z,-1.70
2018-02-20T01:07:26.306Z,-1.60
2018-02-20T01:09:54.039Z,-1.60
2018-02-20T01:12:21.685Z,-1.30
2018-02-20T01:14:49.941Z,-1.50
2018-02-20T01:17:18.497Z,-1.50
2018-02-20T01:19:46.019Z,-1.60
2018-02-20T01:22:13.628Z,-1.40
2018-02-20T01:24:41.939Z,-1.50
2018-02-20T01:27:09.507Z,-1.50
2018-02-20T01:29:37.061Z,-1.50
2018-02-20T01:32:04.641Z,-1.40
2018-02-20T01:34:32.179Z,-1.60
2018-02-20T01:36:59.710Z,-1.50
2018-02-20T01:39:27.198Z,-1.80
2018-02-20T01:41:54.713Z,-1.80
2018-02-20T01:44:23.439Z,-1.70
2018-02-20T01:46:50.941Z,-1.70
2018-02-20T01:49:20.131Z,-1.60
2018-02-20T01:51:48.453Z,-1.60
2018-02-20T01:54:15.998Z,-1.60
2018-02-20T01:56:43.511Z,-1.80
2018-02-20T01:59:11.040Z,-1.70
2018-02-20T02:01:38.683Z,-1.70
2018-02-20T02:04:06.227Z,-1.70
2018-02-20T02:06:34.019Z,-1.80
2018-02-20T02:09:02.309Z,-1.70
2018-02-20T02:11:29.850Z,-1.70
2018-02-20T02:13:57.343Z,-1.80
2018-02-20T02:16:24.846Z,-1.90
2018-02-20T02:18:52.361Z,-1.90
2018-02-20T02:21:19.885Z,-1.90
2018-02-20T02:23:47.430Z,-1.90
2018-02-20T02:26:15.050Z,-2.00
2018-02-20T02:28:42.563Z,-2.00
2018-02-20T02:31:10.051Z,-1.70
2018-02-20T02:33:37.841Z,-2.00
2018-02-20T02:36:05.799Z,-1.90
2018-02-20T02:38:33.360Z,-1.70
2018-02-20T02:41:00.844Z,-2.10
2018-02-20T02:43:28.397Z,-2.10
2018-02-20T02:45:56.118Z,-2.00
2018-02-20T02:48:23.694Z,-2.30
2018-02-20T02:50:51.198Z,-2.10
2018-02-20T02:53:18.700Z,-2.20
2018-02-20T02:55:46.492Z,-2.20
2018-02-20T02:58:13.985Z,-2.20
2018-02-20T03:00:41.507Z,-1.90
2018-02-20T03:03:09.016Z,-2.30
2018-02-20T03:05:37.433Z,-2.30
2018-02-20T03:08:04.944Z,-2.30
2018-02-20T03:10:32.494Z,-2.20
2018-02-20T03:13:00.008Z,-2.30
2018-02-20T03:15:27.501Z,-2.40
2018-02-20T03:17:55.020Z,-2.50
2018-02-20T03:20:22.519Z,-2.50
2018-02-20T03:22:50.038Z,-2.50
2018-02-20T03:25:17.551Z,-2.50
2018-02-20T03:27:45.068Z,-2.50
2018-02-20T03:30:12.798Z,-2.50
2018-02-20T03:32:40.479Z,-2.50
2018-02-20T03:35:08.196Z,-2.50
2018-02-20T03:37:35.751Z,-2.60
2018-02-20T03:40:03.492Z,-2.70
2018-02-20T03:42:31.700Z,-2.60
2018-02-20T03:44:59.284Z,-2.60
2018-02-20T03:47:26.866Z,-2.70
2018-02-20T03:49:54.373Z,-2.80
2018-02-20T03:52:21.891Z,-2.80
2018-02-20T03:54:50.182Z,-2.70
2018-02-20T03:57:17.701Z,-2.90
2018-02-20T03:59:45.191Z,-2.70
2018-02-20T04:02:13.447Z,-2.80
2018-02-20T04:04:41.045Z,-2.80
2018-02-20T04:07:08.558Z,-2.80
2018-02-20T04:09:36.061Z,-2.70
2018-02-20T04:12:03.577Z,-2.70
2018-02-20T04:14:31.096Z,-2.70
2018-02-20T04:16:58.845Z,-2.80
2018-02-20T04:19:26.611Z,-2.70
2018-02-20T04:21:54.098Z,-2.70
2018-02-20T04:24:21.696Z,-2.60
2018-02-20T04:26:49.241Z,-3.10
2018-02-20T04:29:16.748Z,-2.60
2018-02-20T04:31:44.308Z,-2.60
2018-02-20T04:34:13.430Z,-2.50
2018-02-20T04:36:40.967Z,-2.50
2018-02-20T04:39:08.459Z,-2.50
2018-02-20T04:41:36.043Z,-2.70
2018-02-20T04:44:03.593Z,-2.40
2018-02-20T04:46:31.911Z,-2.30
2018-02-20T04:48:59.518Z,-2.40
2018-02-20T04:51:27.810Z,-2.40
2018-02-20T04:53:55.306Z,-2.10
2018-02-20T04:56:22.826Z,-2.40
2018-02-20T04:58:50.330Z,-2.50
2018-02-20T05:01:17.860Z,-2.60
2018-02-20T05:03:45.354Z,-2.50
2018-02-20T05:06:12.867Z,-2.50
2018-02-20T05:08:41.127Z,-2.70
2018-02-20T05:11:08.653Z,-2.60
2018-02-20T05:13:36.159Z,-2.60
2018-02-20T05:16:04.456Z,-2.80
2018-02-20T05:18:31.946Z,-2.80
2018-02-20T05:20:59.462Z,-2.90
2018-02-20T05:23:27.733Z,-3.10
2018-02-20T05:25:55.348Z,-2.90
2018-02-20T05:28:22.941Z,-3.10
2018-02-20T05:30:51.285Z,-3.10
2018-02-20T05:33:18.878Z,-3.10
2018-02-20T05:35:47.312Z,-3.00
2018-02-20T05:38:14.882Z,-3.00
2018-02-20T05:40:42.424Z,-3.00
2018-02-20T05:43:10.071Z,-3.20
2018-02-20T05:45:37.624Z,-3.00
2018-02-20T05:48:05.199Z,-2.70
2018-02-20T05:50:32.830Z,-3.10
2018-02-20T05:53:00.956Z,-3.10
2018-02-20T05:55:28.526Z,-3.10
2018-02-20T05:57:56.076Z,-3.40
2018-02-20T06:00:23.591Z,-3.00
2018-02-20T06:02:51.138Z,-3.10
2018-02-20T06:05:18.718Z,-3.10
2018-02-20T06:07:46.278Z,-3.10
2018-02-20T06:10:13.845Z,-3.10
2018-02-20T06:12:41.397Z,-2.80
2018-02-20T06:15:08.999Z,-2.90
2018-02-20T06:17:36.600Z,-3.00
2018-02-20T06:20:04.177Z,-3.00
2018-02-20T06:22:31.748Z,-2.90
2018-02-20T06:24:59.286Z,-3.00
2018-02-20T06:27:26.852Z,-3.00
2018-02-20T06:29:54.452Z,-3.10
2018-02-20T06:32:22.009Z,-3.00
2018-02-20T06:34:49.547Z,-2.70
2018-02-20T06:37:17.083Z,-2.80
2018-02-20T06:39:44.641Z,-2.80
2018-02-20T06:42:12.133Z,-2.80
2018-02-20T06:44:39.681Z,-2.80
2018-02-20T06:47:07.201Z,-2.60
2018-02-20T06:49:36.304Z,-2.80
2018-02-20T06:52:03.896Z,-3.00
2018-02-20T06:54:32.250Z,-3.40
2018-02-20T06:57:00.357Z,-2.90
2018-02-20T06:59:27.847Z,-2.50
2018-02-20T07:01:57.003Z,-2.60
2018-02-20T07:04:24.527Z,-2.60
2018-02-20T07:06:52.251Z,-2.10
2018-02-20T07:09:19.740Z,-2.50
2018-02-20T07:11:47.251Z,-2.10
2018-02-20T07:14:15.560Z,-2.10
2018-02-20T07:16:43.082Z,-2.00
2018-02-20T07:19:10.589Z,-1.90
2018-02-20T07:21:38.117Z,-2.00
2018-02-20T07:24:05.620Z,-2.00
2018-02-20T07:26:33.145Z,-2.30
2018-02-20T07:29:00.662Z,-2.20
2018-02-20T07:31:28.202Z,-2.60
2018-02-20T07:33:59.955Z,-2.20
2018-02-20T07:36:28.431Z,-2.10
2018-02-20T07:38:56.651Z,-2.10
2018-02-20T07:41:25.079Z,-1.70
2018-02-20T07:43:52.607Z,-1.80
2018-02-20T07:46:20.796Z,-1.70
2018-02-20T07:48:49.061Z,-1.50
2018-02-20T07:51:16.602Z,-1.40
2018-02-20T07:53:44.139Z,-1.30
2018-02-20T07:56:11.683Z,-1.40
2018-02-20T07:58:39.188Z,-1.30
2018-02-20T08:01:06.683Z,-1.30
2018-02-20T08:03:35.088Z,-1.30
2018-02-20T08:06:02.692Z,-1.30
2018-02-20T08:08:30.194Z,-1.40
2018-02-20T08:10:57.701Z,-1.20
2018-02-20T08:13:25.209Z,-1.00
2018-02-20T08:15:52.732Z,-1.00
2018-02-20T08:18:20.254Z,-0.90
2018-02-20T08:20:47.824Z,-0.90
2018-02-20T08:23:15.392Z,-0.70
2018-02-20T08:25:42.980Z,-0.50
2018-02-20T08:28:10.527Z,-0.20
2018-02-20T08:30:38.786Z,-0.10
2018-02-20T08:33:06.331Z,-0.10
2018-02-20T08:38:07.597Z,-0.10
2018-02-20T08:40:35.109Z,-0.10
2018-02-20T08:43:02.615Z,0.00
2018-02-20T08:45:30.645Z,0.00
2018-02-20T08:47:58.187Z,0.20
2018-02-20T08:50:25.664Z,0.20
2018-02-20T08:52:53.177Z,0.10
2018-02-20T08:55:20.699Z,0.40
2018-02-20T08:57:48.215Z,0.40
2018-02-20T09:00:16.500Z,0.60
2018-02-20T09:02:44.018Z,0.50
2018-02-20T09:05:11.535Z,0.60
2018-02-20T09:07:39.111Z,0.70
2018-02-20T09:10:06.591Z,0.90
2018-02-20T09:12:34.104Z,0.90
2018-02-20T09:15:01.622Z,1.10
2018-02-20T09:17:30.236Z,0.80
2018-02-20T09:19:57.745Z,0.80
2018-02-20T09:22:26.209Z,0.90
2018-02-20T09:24:53.785Z,0.80
2018-02-20T09:27:21.291Z,1.20
2018-02-20T09:29:48.794Z,1.10
2018-02-20T09:32:16.311Z,1.30
2018-02-20T09:34:43.829Z,1.50
2018-02-20T09:37:11.350Z,1.90
2018-02-20T09:39:38.835Z,2.10
2018-02-20T09:42:06.361Z,2.30
2018-02-20T09:44:33.886Z,2.10
2018-02-20T09:47:02.273Z,1.90
2018-02-20T09:49:29.845Z,2.00
2018-02-20T09:51:57.397Z,2.60
2018-02-20T09:54:25.011Z,2.20
2018-02-20T09:56:52.751Z,2.50
2018-02-20T09:59:20.289Z,2.70
2018-02-20T10:01:47.828Z,3.10
2018-02-20T10:04:15.362Z,3.10
2018-02-20T10:06:42.933Z,3.10
2018-02-20T10:09:11.255Z,3.10
2018-02-20T10:11:38.745Z,3.00
2018-02-20T10:14:06.264Z,3.10
2018-02-20T10:16:33.783Z,2.90
2018-02-20T10:19:02.038Z,3.40
2018-02-20T10:21:29.637Z,3.30
2018-02-20T10:23:57.883Z,3.90
2018-02-20T10:26:25.388Z,4.20
2018-02-20T10:28:52.905Z,4.30
2018-02-20T10:31:20.401Z,4.50
2018-02-20T10:33:47.901Z,4.30
2018-02-20T10:36:15.384Z,4.30
2018-02-20T10:38:43.658Z,4.20
2018-02-20T10:41:11.939Z,3.60
2018-02-20T10:43:40.192Z,4.00
2018-02-20T10:46:07.736Z,3.90
2018-02-20T10:48:35.227Z,4.40
2018-02-20T10:51:03.501Z,5.40
2018-02-20T10:53:31.778Z,5.70
2018-02-20T10:55:59.290Z,5.70
2018-02-20T10:58:26.824Z,5.70
2018-02-20T11:00:54.332Z,5.50
2018-02-20T11:03:21.860Z,5.10
2018-02-20T11:05:49.427Z,4.70
2018-02-20T11:08:16.955Z,4.60
2018-02-20T11:10:44.480Z,4.60
2018-02-20T11:13:11.998Z,4.50
2018-02-20T11:15:39.509Z,4.30
2018-02-20T11:18:07.781Z,4.60
2018-02-20T11:20:36.061Z,4.20
2018-02-20T11:23:04.370Z,4.10
2018-02-20T11:25:31.877Z,4.10
2018-02-20T11:27:59.438Z,4.50
2018-02-20T11:30:26.950Z,4.60
2018-02-20T11:32:54.450Z,4.70
2018-02-20T11:35:23.518Z,5.20
2018-02-20T11:37:51.068Z,5.20
2018-02-20T11:40:18.613Z,5.50
2018-02-20T11:42:47.085Z,5.70
2018-02-20T11:45:14.656Z,5.70
2018-02-20T11:47:42.162Z,5.70
2018-02-20T11:50:10.516Z,5.80
2018-02-20T11:52:38.026Z,5.80
2018-02-20T11:55:07.490Z,5.50
2018-02-20T11:57:37.537Z,5.30
2018-02-20T12:00:05.926Z,4.90
2018-02-20T12:02:33.452Z,5.00
2018-02-20T12:05:01.019Z,4.40
2018-02-20T12:07:29.409Z,3.80
2018-02-20T12:09:57.731Z,4.10
2018-02-20T12:12:25.276Z,4.20
2018-02-20T12:14:52.788Z,4.70
2018-02-20T12:17:20.362Z,5.20
2018-02-20T12:19:47.861Z,5.70
2018-02-20T12:22:15.397Z,5.50
2018-02-20T12:24:42.915Z,5.50
2018-02-20T12:27:10.475Z,5.70
2018-02-20T12:29:38.043Z,5.60
2018-02-20T12:32:06.326Z,5.50
2018-02-20T12:34:34.659Z,5.40
2018-02-20T12:37:02.170Z,5.80
2018-02-20T12:39:29.699Z,6.10
2018-02-20T12:41:57.183Z,6.10
2018-02-20T12:44:25.433Z,7.10
2018-02-20T12:46:52.973Z,7.10
2018-02-20T12:49:20.496Z,6.50
2018-02-20T12:51:48.025Z,6.20
2018-02-20T12:54:15.591Z,5.60
2018-02-20T12:56:43.098Z,5.30
2018-02-20T12:59:10.647Z,5.30
2018-02-20T13:01:38.119Z,5.30
2018-02-20T13:04:05.734Z,5.60
2018-02-20T13:06:34.006Z,6.00
2018-02-20T13:09:02.293Z,6.50
2018-02-20T13:11:32.816Z,6.40
2018-02-20T13:14:00.355Z,6.00
2018-02-20T13:16:27.864Z,5.70
2018-02-20T13:18:56.178Z,4.80
2018-02-20T13:21:23.769Z,4.80
2018-02-20T13:23:52.045Z,4.80
2018-02-20T13:26:19.578Z,4.60
2018-02-20T13:28:47.113Z,5.30
2018-02-20T13:31:14.664Z,5.80
2018-02-20T13:33:42.177Z,6.30
2018-02-20T13:36:10.471Z,7.10
2018-02-20T13:38:37.966Z,7.00
2018-02-20T13:41:05.506Z,6.80
2018-02-20T13:43:33.028Z,6.00
2018-02-20T13:46:01.362Z,6.00
2018-02-20T13:48:28.894Z,5.90
2018-02-20T13:50:56.415Z,6.20
2018-02-20T13:53:24.752Z,6.30
2018-02-20T13:55:52.265Z,6.20
2018-02-20T13:58:19.844Z,6.20
2018-02-20T14:00:47.466Z,6.60
2018-02-20T14:03:15.846Z,6.50
2018-02-20T14:05:43.515Z,6.50
2018-02-20T14:08:11.887Z,6.10
2018-02-20T14:10:39.522Z,6.10
2018-02-20T14:13:07.081Z,6.80
2018-02-20T14:15:34.669Z,7.80
2018-02-20T14:18:02.492Z,8.90
2018-02-20T14:20:29.982Z,8.50
2018-02-20T14:22:57.517Z,8.50
2018-02-20T14:25:25.211Z,8.60
2018-02-20T14:27:52.770Z,8.20
2018-02-20T14:30:23.309Z,6.90
2018-02-20T14:32:50.895Z,6.90
2018-02-20T14:35:18.401Z,7.00
2018-02-20T14:37:45.898Z,6.90
2018-02-20T14:40:13.423Z,7.00
2018-02-20T14:42:40.892Z,6.80
2018-02-20T14:45:09.188Z,7.20
2018-02-20T14:47:37.072Z,7.00
2018-02-20T14:50:05.989Z,7.30
2018-02-20T14:52:33.514Z,6.70
2018-02-20T14:55:01.024Z,6.70
2018-02-20T14:57:28.667Z,5.60
2018-02-20T14:59:56.173Z,4.80
2018-02-20T15:02:24.537Z,4.50
2018-02-20T15:04:52.860Z,4.00
2018-02-20T15:07:20.356Z,4.10
2018-02-20T15:09:48.148Z,3.90
2018-02-20T15:12:16.408Z,5.00
2018-02-20T15:14:44.683Z,5.80
2018-02-20T15:17:12.215Z,5.80
2018-02-20T15:19:39.724Z,5.80
2018-02-20T15:22:07.973Z,5.60
2018-02-20T15:24:36.247Z,5.50
2018-02-20T15:27:04.528Z,5.10
2018-02-20T15:29:32.840Z,5.20
2018-02-20T15:32:00.356Z,4.90
2018-02-20T15:34:28.649Z,5.00
2018-02-20T15:36:56.933Z,5.20
2018-02-20T15:39:25.192Z,5.20
2018-02-20T15:41:53.469Z,4.80
2018-02-20T15:44:21.731Z,4.60
2018-02-20T15:46:49.257Z,4.60
2018-02-20T15:49:16.746Z,4.60
2018-02-20T15:51:44.303Z,4.60
2018-02-20T15:54:11.788Z,4.00
2018-02-20T15:56:40.308Z,3.20
2018-02-20T15:59:07.795Z,3.10
2018-02-20T16:01:35.364Z,2.90
2018-02-20T16:04:02.869Z,2.70
2018-02-20T16:06:30.397Z,2.40
2018-02-20T16:08:58.652Z,2.60
2018-02-20T16:11:26.183Z,2.60
2018-02-20T16:14:10.497Z,2.70
2018-02-20T16:16:38.066Z,2.60
2018-02-20T16:19:05.595Z,2.60
2018-02-20T16:21:33.854Z,2.50
2018-02-20T16:24:01.789Z,2.50
2018-02-20T16:26:29.547Z,2.40
2018-02-20T16:28:57.070Z,2.30
2018-02-20T16:31:24.621Z,2.30
2018-02-20T16:33:53.138Z,2.10
2018-02-20T16:36:20.676Z,2.20
2018-02-20T16:38:48.214Z,2.10
2018-02-20T16:41:15.737Z,2.10
2018-02-20T16:43:43.784Z,1.80
2018-02-20T16:46:11.318Z,1.80
2018-02-20T16:48:39.001Z,1.50
2018-02-20T16:51:06.570Z,1.50
2018-02-20T16:53:34.158Z,1.40
2018-02-20T16:56:01.717Z,1.30
2018-02-20T16:58:29.303Z,1.10
2018-02-20T17:00:56.839Z,1.10
2018-02-20T17:03:24.339Z,1.00
2018-02-20T17:05:51.883Z,1.00
2018-02-20T17:08:20.208Z,0.90
2018-02-20T17:10:47.756Z,0.90
2018-02-20T17:13:15.301Z,0.80
2018-02-20T17:15:42.829Z,0.80
2018-02-20T17:18:10.806Z,0.80
2018-02-20T17:20:38.353Z,0.10
2018-02-20T17:23:06.663Z,0.50
2018-02-20T17:25:34.204Z,0.60
2018-02-20T17:28:01.733Z,0.40
2018-02-20T17:30:29.287Z,0.40
2018-02-20T17:32:56.880Z,0.30
2018-02-20T17:35:24.680Z,0.20
2018-02-20T17:37:52.202Z,0.20
2018-02-20T17:40:19.814Z,0.20
2018-02-20T17:42:47.406Z,0.20
2018-02-20T17:45:15.063Z,0.10
2018-02-20T17:47:42.589Z,0.10
2018-02-20T17:50:10.517Z,0.10
2018-02-20T17:52:38.795Z,0.10
2018-02-20T17:55:06.931Z,0.30
2018-02-20T17:57:34.501Z,0.20
2018-02-20T18:00:02.024Z,-0.10
2018-02-20T18:02:29.984Z,-0.20
2018-02-20T18:04:57.507Z,0.00
2018-02-20T18:07:25.108Z,-0.20
2018-02-20T18:09:52.682Z,-0.10
2018-02-20T18:12:20.299Z,-0.30
2018-02-20T18:14:47.812Z,-0.30
2018-02-20T18:17:15.358Z,-0.60
2018-02-20T18:19:42.918Z,-0.20
2018-02-20T18:22:10.497Z,-0.40
2018-02-20T18:24:38.065Z,-0.40
2018-02-20T18:27:05.583Z,-0.40
2018-02-20T18:29:33.116Z,-0.30
2018-02-20T18:32:00.679Z,-0.20
2018-02-20T18:34:28.212Z,-0.20
2018-02-20T18:36:55.734Z,-0.20
2018-02-20T18:39:23.476Z,-0.10
2018-02-20T18:41:51.322Z,0.00
2018-02-20T18:44:19.426Z,0.10
2018-02-20T18:46:46.968Z,0.10
2018-02-20T18:49:14.493Z,0.20
2018-02-20T18:51:42.039Z,0.20
2018-02-20T18:54:09.576Z,0.30
2018-02-20T18:56:37.143Z,0.20
2018-02-20T18:59:04.695Z,0.30
2018-02-20T19:01:32.258Z,0.40
2018-02-20T19:03:59.831Z,0.40
2018-02-20T19:06:30.246Z,0.40
2018-02-20T19:08:57.810Z,0.00
2018-02-20T19:11:25.342Z,0.40
2018-02-20T19:13:52.901Z,0.40
2018-02-20T19:16:20.466Z,0.80
2018-02-20T19:18:49.197Z,0.40
2018-02-20T19:21:16.782Z,0.30
2018-02-20T19:23:44.332Z,0.30
2018-02-20T19:26:11.844Z,0.40
2018-02-20T19:28:39.401Z,0.30
2018-02-20T19:31:06.933Z,0.30
2018-02-20T19:33:34.468Z,0.30
2018-02-20T19:36:02.023Z,0.30
2018-02-20T19:38:29.538Z,0.30
2018-02-20T19:40:57.183Z,0.30
2018-02-20T19:43:25.629Z,0.30
2018-02-20T19:45:53.234Z,0.30
2018-02-20T19:48:22.367Z,0.30
2018-02-20T19:50:50.084Z,0.30
2018-02-20T19:53:17.683Z,0.20
2018-02-20T19:55:45.320Z,0.20
2018-02-20T19:58:12.961Z,0.10
2018-02-20T20:00:40.547Z,0.30
2018-02-20T20:03:08.075Z,0.10
2018-02-20T20:05:35.594Z,0.10
2018-02-20T20:08:03.133Z,0.10
2018-02-20T20:10:30.678Z,0.10
2018-02-20T20:12:58.226Z,0.10
2018-02-20T20:15:25.796Z,0.00
2018-02-20T20:17:54.033Z,-0.10
2018-02-20T20:20:21.543Z,-0.10
2018-02-20T20:22:49.845Z,-0.20
2018-02-20T20:25:17.368Z,-0.20
2018-02-20T20:27:44.928Z,-0.30
2018-02-20T20:30:12.573Z,-0.40
2018-02-20T20:32:41.191Z,-0.50
2018-02-20T20:35:08.800Z,-0.50
2018-02-20T20:37:36.372Z,-0.60
2018-02-20T20:40:03.910Z,-0.70
2018-02-20T20:42:32.207Z,-0.60
2018-02-20T20:44:59.853Z,-0.80
2018-02-20T20:47:27.359Z,-0.90
2018-02-20T20:49:55.826Z,-0.90
2018-02-20T20:52:23.401Z,-0.90
2018-02-20T20:54:53.065Z,-1.10
2018-02-20T20:57:20.623Z,-1.20
2018-02-20T20:59:48.245Z,-1.00
2018-02-20T21:02:15.786Z,-1.20
2018-02-20T21:04:44.566Z,-1.20
2018-02-20T21:07:12.192Z,-1.40
2018-02-20T21:09:39.730Z,-1.50
2018-02-20T21:12:07.226Z,-1.50
2018-02-20T21:14:34.817Z,-1.50
2018-02-20T21:17:02.625Z,-1.40
2018-02-20T21:19:30.158Z,-1.30
2018-02-20T21:21:57.677Z,-1.40
2018-02-20T21:24:25.228Z,-1.50
2018-02-20T21:26:52.885Z,-1.60
2018-02-20T21:29:20.373Z,-1.60
2018-02-20T21:31:47.948Z,-1.70
2018-02-20T21:34:15.502Z,-1.70
2018-02-20T21:36:43.061Z,-1.80
2018-02-20T21:39:10.604Z,-1.90
2018-02-20T21:41:38.233Z,-1.80
2018-02-20T21:44:06.655Z,-1.80
2018-02-20T21:46:34.195Z,-1.70
2018-02-20T21:49:01.741Z,-1.60
2018-02-20T21:51:29.274Z,-1.60
2018-02-20T21:53:56.942Z,-1.70
2018-02-20T21:56:24.496Z,-1.70
2018-02-20T21:58:52.693Z,-1.60
2018-02-20T22:01:20.466Z,-1.50
2018-02-20T22:03:47.966Z,-1.50
2018-02-20T22:06:15.605Z,-1.30
2018-02-20T22:08:43.117Z,-1.10
2018-02-20T22:11:10.673Z,-1.10
2018-02-20T22:13:38.201Z,-1.00
2018-02-20T22:16:05.792Z,-1.00
2018-02-20T22:18:33.285Z,-0.80
2018-02-20T22:21:01.790Z,-0.70
2018-02-20T22:23:29.439Z,-0.80
2018-02-20T22:25:56.986Z,-0.80
2018-02-20T22:28:24.555Z,-0.80
2018-02-20T22:30:52.124Z,-0.80
2018-02-20T22:33:19.903Z,-0.60
2018-02-20T22:35:47.540Z,-0.60
2018-02-20T22:38:15.121Z,-0.60
2018-02-20T22:40:42.892Z,-0.60
2018-02-20T22:43:10.508Z,-0.50
2018-02-20T22:45:38.045Z,-0.50
2018-02-20T22:48:05.819Z,-0.50
2018-02-20T22:50:33.973Z,-0.50
2018-02-20T22:53:01.484Z,-0.40
2018-02-20T22:55:29.070Z,-0.30
2018-02-20T22:57:56.605Z,-0.30
2018-02-20T23:00:24.210Z,-0.20
2018-02-20T23:02:51.772Z,-0.40
2018-02-20T23:05:19.236Z,-0.40
2018-02-20T23:07:46.740Z,-0.30
2018-02-20T23:10:14.557Z,-0.30
2018-02-20T23:12:42.058Z,-0.30
2018-02-20T23:15:09.593Z,-0.30
2018-02-20T23:17:37.081Z,-0.40
2018-02-20T23:20:04.637Z,-0.40
2018-02-20T23:22:33.119Z,-0.40
2018-02-20T23:25:00.645Z,-0.60
2018-02-20T23:27:28.159Z,-0.30
2018-02-20T23:29:55.632Z,-0.30
2018-02-20T23:32:23.331Z,-0.40
2018-02-20T23:34:50.817Z,-0.40
2018-02-20T23:37:18.357Z,-0.50
2018-02-20T23:39:45.909Z,-0.50
2018-02-20T23:42:13.443Z,-0.40
2018-02-20T23:44:40.985Z,-0.50
2018-02-20T23:47:08.512Z,-0.50
2018-02-20T23:49:36.019Z,-0.60
2018-02-20T23:52:03.552Z,-0.40
2018-02-20T23:54:31.084Z,-0.50
2018-02-20T23:56:58.909Z,-0.30
2018-02-20T23:59:26.390Z,-0.50
